Terminal Aerodrome Forecast
Issued by NWS

Home | Current Version | Previous Version | Graphics & Text | Print | Product List | Glossary On
Versions: 1 2 3 4 5 6 7 8 9 10 11 12 13 14 15 16 17 18 19 20 21 22 23 24 25 26 27 28 29 30 31 32
000
FTUS43 KGLD 031736
TAFMCK
TAF
KMCK 031736Z 0318/0418 36016G26KT P6SM BKN050
     FM040400 02011KT 5SM -SN BR OVC025
      TEMPO 0406/0409 2SM -SN BR OVC015
     FM041100 33008KT P6SM BKN025
     FM041300 32014KT P6SM SCT035=

USA.gov is the U.S. government's official web portal to all federal, state and local government web resources and services.